sensor_id;sensor_type;location;lat;lon;timestamp;P1;durP1;ratioP1;P2;durP2;ratioP2
61116;SDS011;47002;50.856;6.580;2022-07-24T00:01:41;0.00;;;0.00;;
61116;SDS011;47002;50.856;6.580;2022-07-24T00:04:07;0.00;;;0.00;;
61116;SDS011;47002;50.856;6.580;2022-07-24T00:06:34;0.00;;;0.00;;
61116;SDS011;47002;50.856;6.580;2022-07-24T00:09:00;0.00;;;0.00;;
61116;SDS011;47002;50.856;6.580;2022-07-24T00:11:25;0.00;;;0.00;;
61116;SDS011;47002;50.856;6.580;2022-07-24T00:13:51;0.00;;;0.00;;
61116;SDS011;47002;50.856;6.580;2022-07-24T00:16:17;0.00;;;0.00;;
61116;SDS011;47002;50.856;6.580;2022-07-24T00:18:43;0.00;;;0.00;;
61116;SDS011;47002;50.856;6.580;2022-07-24T00:21:08;0.00;;;0.00;;
61116;SDS011;47002;50.856;6.580;2022-07-24T00:23:35;0.00;;;0.00;;
61116;SDS011;47002;50.856;6.580;2022-07-24T00:26:01;0.00;;;0.00;;
61116;SDS011;47002;50.856;6.580;2022-07-24T00:28:27;0.00;;;0.00;;
61116;SDS011;47002;50.856;6.580;2022-07-24T00:30:53;0.00;;;0.00;;
61116;SDS011;47002;50.856;6.580;2022-07-24T00:33:18;0.00;;;0.00;;
61116;SDS011;47002;50.856;6.580;2022-07-24T00:35:44;0.00;;;0.00;;
61116;SDS011;47002;50.856;6.580;2022-07-24T00:38:10;0.00;;;0.00;;
61116;SDS011;47002;50.856;6.580;2022-07-24T00:40:37;0.00;;;0.00;;
61116;SDS011;47002;50.856;6.580;2022-07-24T00:43:03;0.00;;;0.00;;
61116;SDS011;47002;50.856;6.580;2022-07-24T00:45:29;0.00;;;0.00;;
61116;SDS011;47002;50.856;6.580;2022-07-24T00:47:55;0.00;;;0.00;;
61116;SDS011;47002;50.856;6.580;2022-07-24T00:50:21;0.00;;;0.00;;
61116;SDS011;47002;50.856;6.580;2022-07-24T00:52:47;0.00;;;0.00;;
61116;SDS011;47002;50.856;6.580;2022-07-24T00:55:13;0.00;;;0.00;;
61116;SDS011;47002;50.856;6.580;2022-07-24T00:57:40;0.00;;;0.00;;
61116;SDS011;47002;50.856;6.580;2022-07-24T01:00:07;0.00;;;0.00;;
61116;SDS011;47002;50.856;6.580;2022-07-24T01:02:34;0.00;;;0.00;;
61116;SDS011;47002;50.856;6.580;2022-07-24T01:04:59;0.00;;;0.00;;
61116;SDS011;47002;50.856;6.580;2022-07-24T01:07:25;0.00;;;0.00;;
61116;SDS011;47002;50.856;6.580;2022-07-24T01:09:51;0.00;;;0.00;;
61116;SDS011;47002;50.856;6.580;2022-07-24T01:12:17;0.00;;;0.00;;
61116;SDS011;47002;50.856;6.580;2022-07-24T01:14:45;0.00;;;0.00;;
61116;SDS011;47002;50.856;6.580;2022-07-24T01:17:10;0.00;;;0.00;;
61116;SDS011;47002;50.856;6.580;2022-07-24T01:19:37;0.00;;;0.00;;
61116;SDS011;47002;50.856;6.580;2022-07-24T01:22:04;0.00;;;0.00;;
61116;SDS011;47002;50.856;6.580;2022-07-24T01:24:29;0.00;;;0.00;;
61116;SDS011;47002;50.856;6.580;2022-07-24T01:26:55;0.00;;;0.00;;
61116;SDS011;47002;50.856;6.580;2022-07-24T01:29:21;0.00;;;0.00;;
61116;SDS011;47002;50.856;6.580;2022-07-24T01:31:46;0.00;;;0.00;;
61116;SDS011;47002;50.856;6.580;2022-07-24T01:34:12;0.00;;;0.00;;
61116;SDS011;47002;50.856;6.580;2022-07-24T01:36:38;0.00;;;0.00;;
61116;SDS011;47002;50.856;6.580;2022-07-24T01:39:05;0.00;;;0.00;;
61116;SDS011;47002;50.856;6.580;2022-07-24T01:41:31;0.00;;;0.00;;
61116;SDS011;47002;50.856;6.580;2022-07-24T01:43:57;0.00;;;0.00;;
61116;SDS011;47002;50.856;6.580;2022-07-24T01:46:23;0.00;;;0.00;;
61116;SDS011;47002;50.856;6.580;2022-07-24T01:48:49;0.00;;;0.00;;
61116;SDS011;47002;50.856;6.580;2022-07-24T01:51:15;0.00;;;0.00;;
61116;SDS011;47002;50.856;6.580;2022-07-24T01:53:40;0.00;;;0.00;;
61116;SDS011;47002;50.856;6.580;2022-07-24T01:56:07;0.00;;;0.00;;
61116;SDS011;47002;50.856;6.580;2022-07-24T01:58:33;0.00;;;0.00;;
61116;SDS011;47002;50.856;6.580;2022-07-24T02:00:59;0.00;;;0.00;;
61116;SDS011;47002;50.856;6.580;2022-07-24T02:03:25;0.00;;;0.00;;
61116;SDS011;47002;50.856;6.580;2022-07-24T02:05:50;0.00;;;0.00;;
61116;SDS011;47002;50.856;6.580;2022-07-24T02:08:16;0.00;;;0.00;;
61116;SDS011;47002;50.856;6.580;2022-07-24T02:10:42;0.00;;;0.00;;
61116;SDS011;47002;50.856;6.580;2022-07-24T02:13:09;0.00;;;0.00;;
61116;SDS011;47002;50.856;6.580;2022-07-24T02:15:35;0.00;;;0.00;;
61116;SDS011;47002;50.856;6.580;2022-07-24T02:18:00;0.00;;;0.00;;
61116;SDS011;47002;50.856;6.580;2022-07-24T02:20:27;0.00;;;0.00;;
61116;SDS011;47002;50.856;6.580;2022-07-24T02:22:53;0.00;;;0.00;;
61116;SDS011;47002;50.856;6.580;2022-07-24T02:25:19;0.00;;;0.00;;
61116;SDS011;47002;50.856;6.580;2022-07-24T02:27:45;0.00;;;0.00;;
61116;SDS011;47002;50.856;6.580;2022-07-24T02:30:14;0.00;;;0.00;;
61116;SDS011;47002;50.856;6.580;2022-07-24T02:32:41;0.00;;;0.00;;
61116;SDS011;47002;50.856;6.580;2022-07-24T02:35:07;0.00;;;0.00;;
61116;SDS011;47002;50.856;6.580;2022-07-24T02:37:34;0.00;;;0.00;;
61116;SDS011;47002;50.856;6.580;2022-07-24T02:40:00;0.00;;;0.00;;
61116;SDS011;47002;50.856;6.580;2022-07-24T02:42:26;0.00;;;0.00;;
61116;SDS011;47002;50.856;6.580;2022-07-24T02:44:52;0.00;;;0.00;;
61116;SDS011;47002;50.856;6.580;2022-07-24T02:47:19;0.00;;;0.00;;
61116;SDS011;47002;50.856;6.580;2022-07-24T02:49:44;0.00;;;0.00;;
61116;SDS011;47002;50.856;6.580;2022-07-24T02:52:10;0.00;;;0.00;;
61116;SDS011;47002;50.856;6.580;2022-07-24T02:54:36;0.00;;;0.00;;
61116;SDS011;47002;50.856;6.580;2022-07-24T02:57:01;0.00;;;0.00;;
61116;SDS011;47002;50.856;6.580;2022-07-24T02:59:27;0.00;;;0.00;;
61116;SDS011;47002;50.856;6.580;2022-07-24T03:01:53;0.00;;;0.00;;
61116;SDS011;47002;50.856;6.580;2022-07-24T03:04:20;0.00;;;0.00;;
61116;SDS011;47002;50.856;6.580;2022-07-24T03:06:46;0.00;;;0.00;;
61116;SDS011;47002;50.856;6.580;2022-07-24T03:09:11;0.00;;;0.00;;
61116;SDS011;47002;50.856;6.580;2022-07-24T03:11:37;0.00;;;0.00;;
61116;SDS011;47002;50.856;6.580;2022-07-24T03:14:03;0.00;;;0.00;;
61116;SDS011;47002;50.856;6.580;2022-07-24T03:16:29;0.00;;;0.00;;
61116;SDS011;47002;50.856;6.580;2022-07-24T03:18:54;0.00;;;0.00;;
61116;SDS011;47002;50.856;6.580;2022-07-24T03:21:21;0.00;;;0.00;;
61116;SDS011;47002;50.856;6.580;2022-07-24T03:23:47;0.00;;;0.00;;
61116;SDS011;47002;50.856;6.580;2022-07-24T03:26:13;0.00;;;0.00;;
61116;SDS011;47002;50.856;6.580;2022-07-24T03:28:38;0.00;;;0.00;;
61116;SDS011;47002;50.856;6.580;2022-07-24T03:31:04;0.00;;;0.00;;
61116;SDS011;47002;50.856;6.580;2022-07-24T03:33:30;0.00;;;0.00;;
61116;SDS011;47002;50.856;6.580;2022-07-24T03:35:55;0.00;;;0.00;;
61116;SDS011;47002;50.856;6.580;2022-07-24T03:38:22;0.00;;;0.00;;
61116;SDS011;47002;50.856;6.580;2022-07-24T03:40:48;0.00;;;0.00;;
61116;SDS011;47002;50.856;6.580;2022-07-24T03:43:14;0.00;;;0.00;;
61116;SDS011;47002;50.856;6.580;2022-07-24T03:45:40;0.00;;;0.00;;
61116;SDS011;47002;50.856;6.580;2022-07-24T03:48:05;0.00;;;0.00;;
61116;SDS011;47002;50.856;6.580;2022-07-24T03:50:31;0.00;;;0.00;;
61116;SDS011;47002;50.856;6.580;2022-07-24T03:52:57;0.00;;;0.00;;
61116;SDS011;47002;50.856;6.580;2022-07-24T03:55:24;0.00;;;0.00;;
61116;SDS011;47002;50.856;6.580;2022-07-24T03:57:50;0.00;;;0.00;;
61116;SDS011;47002;50.856;6.580;2022-07-24T04:00:15;0.00;;;0.00;;
61116;SDS011;47002;50.856;6.580;2022-07-24T04:02:41;0.00;;;0.00;;
61116;SDS011;47002;50.856;6.580;2022-07-24T04:05:07;0.00;;;0.00;;
61116;SDS011;47002;50.856;6.580;2022-07-24T04:07:33;0.00;;;0.00;;
61116;SDS011;47002;50.856;6.580;2022-07-24T04:09:59;0.00;;;0.00;;
61116;SDS011;47002;50.856;6.580;2022-07-24T04:12:26;0.00;;;0.00;;
61116;SDS011;47002;50.856;6.580;2022-07-24T04:14:52;0.00;;;0.00;;
61116;SDS011;47002;50.856;6.580;2022-07-24T04:17:17;0.00;;;0.00;;
61116;SDS011;47002;50.856;6.580;2022-07-24T04:19:43;0.00;;;0.00;;
61116;SDS011;47002;50.856;6.580;2022-07-24T04:22:09;0.00;;;0.00;;
61116;SDS011;47002;50.856;6.580;2022-07-24T04:24:34;0.00;;;0.00;;
61116;SDS011;47002;50.856;6.580;2022-07-24T04:27:00;0.00;;;0.00;;
61116;SDS011;47002;50.856;6.580;2022-07-24T04:29:27;0.00;;;0.00;;
61116;SDS011;47002;50.856;6.580;2022-07-24T04:31:53;0.00;;;0.00;;
61116;SDS011;47002;50.856;6.580;2022-07-24T04:34:18;0.00;;;0.00;;
61116;SDS011;47002;50.856;6.580;2022-07-24T04:36:44;0.00;;;0.00;;
61116;SDS011;47002;50.856;6.580;2022-07-24T04:39:10;0.00;;;0.00;;
61116;SDS011;47002;50.856;6.580;2022-07-24T04:41:36;0.00;;;0.00;;
61116;SDS011;47002;50.856;6.580;2022-07-24T04:44:01;0.00;;;0.00;;
61116;SDS011;47002;50.856;6.580;2022-07-24T04:46:29;0.00;;;0.00;;
61116;SDS011;47002;50.856;6.580;2022-07-24T04:48:54;0.00;;;0.00;;
61116;SDS011;47002;50.856;6.580;2022-07-24T04:51:20;0.00;;;0.00;;
61116;SDS011;47002;50.856;6.580;2022-07-24T04:53:46;0.00;;;0.00;;
61116;SDS011;47002;50.856;6.580;2022-07-24T04:56:11;0.00;;;0.00;;
61116;SDS011;47002;50.856;6.580;2022-07-24T04:58:37;0.00;;;0.00;;
61116;SDS011;47002;50.856;6.580;2022-07-24T05:01:03;0.00;;;0.00;;
61116;SDS011;47002;50.856;6.580;2022-07-24T05:03:30;0.00;;;0.00;;
61116;SDS011;47002;50.856;6.580;2022-07-24T05:05:56;0.00;;;0.00;;
61116;SDS011;47002;50.856;6.580;2022-07-24T05:08:21;0.00;;;0.00;;
61116;SDS011;47002;50.856;6.580;2022-07-24T05:10:47;0.00;;;0.00;;
61116;SDS011;47002;50.856;6.580;2022-07-24T05:13:13;0.00;;;0.00;;
61116;SDS011;47002;50.856;6.580;2022-07-24T05:15:39;0.00;;;0.00;;
61116;SDS011;47002;50.856;6.580;2022-07-24T05:18:04;0.00;;;0.00;;
61116;SDS011;47002;50.856;6.580;2022-07-24T05:20:31;0.00;;;0.00;;
61116;SDS011;47002;50.856;6.580;2022-07-24T05:22:57;0.00;;;0.00;;
61116;SDS011;47002;50.856;6.580;2022-07-24T05:25:23;0.00;;;0.00;;
61116;SDS011;47002;50.856;6.580;2022-07-24T05:27:48;0.00;;;0.00;;
61116;SDS011;47002;50.856;6.580;2022-07-24T05:30:14;0.00;;;0.00;;
61116;SDS011;47002;50.856;6.580;2022-07-24T05:32:40;0.00;;;0.00;;
61116;SDS011;47002;50.856;6.580;2022-07-24T05:35:06;0.00;;;0.00;;
61116;SDS011;47002;50.856;6.580;2022-07-24T05:37:34;0.00;;;0.00;;
61116;SDS011;47002;50.856;6.580;2022-07-24T05:39:59;0.00;;;0.00;;
61116;SDS011;47002;50.856;6.580;2022-07-24T05:42:25;0.00;;;0.00;;
61116;SDS011;47002;50.856;6.580;2022-07-24T05:44:51;0.00;;;0.00;;
61116;SDS011;47002;50.856;6.580;2022-07-24T05:47:16;0.00;;;0.00;;
61116;SDS011;47002;50.856;6.580;2022-07-24T05:49:42;0.00;;;0.00;;
61116;SDS011;47002;50.856;6.580;2022-07-24T05:52:08;0.00;;;0.00;;
61116;SDS011;47002;50.856;6.580;2022-07-24T05:54:35;0.00;;;0.00;;
61116;SDS011;47002;50.856;6.580;2022-07-24T05:57:01;0.00;;;0.00;;
61116;SDS011;47002;50.856;6.580;2022-07-24T05:59:27;0.00;;;0.00;;
61116;SDS011;47002;50.856;6.580;2022-07-24T06:01:52;0.00;;;0.00;;
61116;SDS011;47002;50.856;6.580;2022-07-24T06:04:18;0.00;;;0.00;;
61116;SDS011;47002;50.856;6.580;2022-07-24T06:06:44;0.00;;;0.00;;
61116;SDS011;47002;50.856;6.580;2022-07-24T06:09:09;0.00;;;0.00;;
61116;SDS011;47002;50.856;6.580;2022-07-24T06:11:36;0.00;;;0.00;;
61116;SDS011;47002;50.856;6.580;2022-07-24T06:14:02;0.00;;;0.00;;
61116;SDS011;47002;50.856;6.580;2022-07-24T06:16:28;0.00;;;0.00;;
61116;SDS011;47002;50.856;6.580;2022-07-24T06:18:53;0.00;;;0.00;;
61116;SDS011;47002;50.856;6.580;2022-07-24T06:21:19;0.00;;;0.00;;
61116;SDS011;47002;50.856;6.580;2022-07-24T06:23:45;0.00;;;0.00;;
61116;SDS011;47002;50.856;6.580;2022-07-24T06:26:10;0.00;;;0.00;;
61116;SDS011;47002;50.856;6.580;2022-07-24T06:28:37;0.00;;;0.00;;
61116;SDS011;47002;50.856;6.580;2022-07-24T06:31:03;0.00;;;0.00;;
61116;SDS011;47002;50.856;6.580;2022-07-24T06:33:29;0.00;;;0.00;;
61116;SDS011;47002;50.856;6.580;2022-07-24T06:35:55;0.00;;;0.00;;
61116;SDS011;47002;50.856;6.580;2022-07-24T06:38:20;0.00;;;0.00;;
61116;SDS011;47002;50.856;6.580;2022-07-24T06:40:46;0.00;;;0.00;;
61116;SDS011;47002;50.856;6.580;2022-07-24T06:43:12;0.00;;;0.00;;
61116;SDS011;47002;50.856;6.580;2022-07-24T06:45:39;0.00;;;0.00;;
61116;SDS011;47002;50.856;6.580;2022-07-24T06:48:05;0.00;;;0.00;;
61116;SDS011;47002;50.856;6.580;2022-07-24T06:50:31;0.00;;;0.00;;
61116;SDS011;47002;50.856;6.580;2022-07-24T06:52:57;0.00;;;0.00;;
61116;SDS011;47002;50.856;6.580;2022-07-24T06:55:23;0.00;;;0.00;;
61116;SDS011;47002;50.856;6.580;2022-07-24T06:57:48;0.00;;;0.00;;
61116;SDS011;47002;50.856;6.580;2022-07-24T07:00:14;0.00;;;0.00;;
61116;SDS011;47002;50.856;6.580;2022-07-24T07:02:42;0.00;;;0.00;;
61116;SDS011;47002;50.856;6.580;2022-07-24T07:05:08;0.00;;;0.00;;
61116;SDS011;47002;50.856;6.580;2022-07-24T07:07:34;0.00;;;0.00;;
61116;SDS011;47002;50.856;6.580;2022-07-24T07:10:01;0.00;;;0.00;;
61116;SDS011;47002;50.856;6.580;2022-07-24T07:12:27;0.00;;;0.00;;
61116;SDS011;47002;50.856;6.580;2022-07-24T07:14:53;0.00;;;0.00;;
61116;SDS011;47002;50.856;6.580;2022-07-24T07:17:18;0.00;;;0.00;;
61116;SDS011;47002;50.856;6.580;2022-07-24T07:19:45;0.00;;;0.00;;
61116;SDS011;47002;50.856;6.580;2022-07-24T07:22:11;0.00;;;0.00;;
61116;SDS011;47002;50.856;6.580;2022-07-24T07:24:37;0.00;;;0.00;;
61116;SDS011;47002;50.856;6.580;2022-07-24T07:27:03;0.00;;;0.00;;
61116;SDS011;47002;50.856;6.580;2022-07-24T07:29:28;0.00;;;0.00;;
61116;SDS011;47002;50.856;6.580;2022-07-24T07:31:54;0.00;;;0.00;;
61116;SDS011;47002;50.856;6.580;2022-07-24T07:34:20;0.00;;;0.00;;
61116;SDS011;47002;50.856;6.580;2022-07-24T07:36:47;0.00;;;0.00;;
61116;SDS011;47002;50.856;6.580;2022-07-24T07:39:13;0.00;;;0.00;;
61116;SDS011;47002;50.856;6.580;2022-07-24T07:41:38;0.00;;;0.00;;
61116;SDS011;47002;50.856;6.580;2022-07-24T07:44:04;0.03;;;0.03;;
61116;SDS011;47002;50.856;6.580;2022-07-24T07:46:30;0.00;;;0.00;;
61116;SDS011;47002;50.856;6.580;2022-07-24T07:48:55;0.00;;;0.00;;
61116;SDS011;47002;50.856;6.580;2022-07-24T07:51:21;0.00;;;0.00;;
61116;SDS011;47002;50.856;6.580;2022-07-24T07:53:48;0.00;;;0.00;;
61116;SDS011;47002;50.856;6.580;2022-07-24T07:56:14;0.00;;;0.00;;
61116;SDS011;47002;50.856;6.580;2022-07-24T07:58:40;0.00;;;0.00;;
61116;SDS011;47002;50.856;6.580;2022-07-24T08:01:05;0.00;;;0.00;;
61116;SDS011;47002;50.856;6.580;2022-07-24T08:03:31;0.00;;;0.00;;
61116;SDS011;47002;50.856;6.580;2022-07-24T08:05:57;0.00;;;0.00;;
61116;SDS011;47002;50.856;6.580;2022-07-24T08:08:24;0.00;;;0.00;;
61116;SDS011;47002;50.856;6.580;2022-07-24T08:10:51;0.00;;;0.00;;
61116;SDS011;47002;50.856;6.580;2022-07-24T08:13:17;0.00;;;0.00;;
61116;SDS011;47002;50.856;6.580;2022-07-24T08:15:43;0.00;;;0.00;;
61116;SDS011;47002;50.856;6.580;2022-07-24T08:18:09;0.00;;;0.00;;
61116;SDS011;47002;50.856;6.580;2022-07-24T08:20:34;0.00;;;0.00;;
61116;SDS011;47002;50.856;6.580;2022-07-24T08:23:00;0.00;;;0.00;;
61116;SDS011;47002;50.856;6.580;2022-07-24T08:25:26;0.03;;;0.03;;
61116;SDS011;47002;50.856;6.580;2022-07-24T08:27:53;0.00;;;0.00;;
61116;SDS011;47002;50.856;6.580;2022-07-24T08:30:19;0.00;;;0.00;;
61116;SDS011;47002;50.856;6.580;2022-07-24T08:32:45;0.00;;;0.00;;
61116;SDS011;47002;50.856;6.580;2022-07-24T08:35:10;0.00;;;0.00;;
61116;SDS011;47002;50.856;6.580;2022-07-24T08:37:37;0.10;;;0.10;;
61116;SDS011;47002;50.856;6.580;2022-07-24T08:40:04;0.03;;;0.00;;
61116;SDS011;47002;50.856;6.580;2022-07-24T08:42:31;0.00;;;0.00;;
61116;SDS011;47002;50.856;6.580;2022-07-24T08:44:58;0.10;;;0.10;;
61116;SDS011;47002;50.856;6.580;2022-07-24T08:47:24;0.10;;;0.10;;
61116;SDS011;47002;50.856;6.580;2022-07-24T08:49:51;0.00;;;0.00;;
61116;SDS011;47002;50.856;6.580;2022-07-24T08:52:19;0.10;;;0.10;;
61116;SDS011;47002;50.856;6.580;2022-07-24T08:54:46;0.10;;;0.10;;
61116;SDS011;47002;50.856;6.580;2022-07-24T08:57:12;0.00;;;0.00;;
61116;SDS011;47002;50.856;6.580;2022-07-24T08:59:37;0.10;;;0.10;;
61116;SDS011;47002;50.856;6.580;2022-07-24T09:02:05;0.10;;;0.10;;
61116;SDS011;47002;50.856;6.580;2022-07-24T09:04:31;0.10;;;0.10;;
61116;SDS011;47002;50.856;6.580;2022-07-24T09:06:58;0.10;;;0.10;;
61116;SDS011;47002;50.856;6.580;2022-07-24T09:09:24;0.10;;;0.10;;
61116;SDS011;47002;50.856;6.580;2022-07-24T09:11:51;0.10;;;0.10;;
61116;SDS011;47002;50.856;6.580;2022-07-24T09:14:31;0.10;;;0.10;;
61116;SDS011;47002;50.856;6.580;2022-07-24T09:17:00;0.10;;;0.10;;
61116;SDS011;47002;50.856;6.580;2022-07-24T09:19:28;0.10;;;0.10;;
61116;SDS011;47002;50.856;6.580;2022-07-24T09:21:54;0.10;;;0.10;;
61116;SDS011;47002;50.856;6.580;2022-07-24T09:24:20;0.10;;;0.10;;
61116;SDS011;47002;50.856;6.580;2022-07-24T09:26:47;0.10;;;0.10;;
61116;SDS011;47002;50.856;6.580;2022-07-24T09:29:14;0.10;;;0.10;;
61116;SDS011;47002;50.856;6.580;2022-07-24T09:31:50;0.10;;;0.10;;
61116;SDS011;47002;50.856;6.580;2022-07-24T09:34:17;0.10;;;0.10;;
61116;SDS011;47002;50.856;6.580;2022-07-24T09:36:48;0.10;;;0.10;;
61116;SDS011;47002;50.856;6.580;2022-07-24T09:39:20;0.10;;;0.10;;
61116;SDS011;47002;50.856;6.580;2022-07-24T09:41:49;0.10;;;0.10;;
61116;SDS011;47002;50.856;6.580;2022-07-24T09:44:17;0.10;;;0.10;;
61116;SDS011;47002;50.856;6.580;2022-07-24T09:46:45;0.10;;;0.10;;
61116;SDS011;47002;50.856;6.580;2022-07-24T09:49:17;0.20;;;0.20;;
61116;SDS011;47002;50.856;6.580;2022-07-24T09:51:44;0.10;;;0.10;;
61116;SDS011;47002;50.856;6.580;2022-07-24T09:54:11;0.10;;;0.10;;
61116;SDS011;47002;50.856;6.580;2022-07-24T09:56:37;0.10;;;0.10;;
61116;SDS011;47002;50.856;6.580;2022-07-24T09:59:03;0.10;;;0.10;;
61116;SDS011;47002;50.856;6.580;2022-07-24T10:01:29;0.10;;;0.10;;
61116;SDS011;47002;50.856;6.580;2022-07-24T10:03:56;0.20;;;0.20;;
61116;SDS011;47002;50.856;6.580;2022-07-24T10:06:23;0.10;;;0.10;;
61116;SDS011;47002;50.856;6.580;2022-07-24T10:08:50;0.20;;;0.20;;
61116;SDS011;47002;50.856;6.580;2022-07-24T10:11:18;0.20;;;0.20;;
61116;SDS011;47002;50.856;6.580;2022-07-24T10:13:44;0.20;;;0.20;;
61116;SDS011;47002;50.856;6.580;2022-07-24T10:16:27;0.20;;;0.20;;
61116;SDS011;47002;50.856;6.580;2022-07-24T10:18:55;0.10;;;0.10;;
61116;SDS011;47002;50.856;6.580;2022-07-24T10:21:22;0.20;;;0.20;;
61116;SDS011;47002;50.856;6.580;2022-07-24T10:23:58;0.20;;;0.20;;
61116;SDS011;47002;50.856;6.580;2022-07-24T10:26:46;0.20;;;0.20;;
61116;SDS011;47002;50.856;6.580;2022-07-24T10:29:14;0.20;;;0.20;;
61116;SDS011;47002;50.856;6.580;2022-07-24T10:31:42;0.20;;;0.20;;
61116;SDS011;47002;50.856;6.580;2022-07-24T10:34:12;0.20;;;0.20;;
61116;SDS011;47002;50.856;6.580;2022-07-24T10:36:45;0.20;;;0.20;;
61116;SDS011;47002;50.856;6.580;2022-07-24T10:39:20;0.20;;;0.20;;
61116;SDS011;47002;50.856;6.580;2022-07-24T10:42:01;0.20;;;0.20;;
61116;SDS011;47002;50.856;6.580;2022-07-24T10:44:29;0.20;;;0.20;;
61116;SDS011;47002;50.856;6.580;2022-07-24T10:46:59;0.20;;;0.20;;
61116;SDS011;47002;50.856;6.580;2022-07-24T10:49:45;0.20;;;0.20;;
61116;SDS011;47002;50.856;6.580;2022-07-24T10:52:20;0.20;;;0.20;;
61116;SDS011;47002;50.856;6.580;2022-07-24T10:54:48;0.20;;;0.20;;
61116;SDS011;47002;50.856;6.580;2022-07-24T10:57:47;0.20;;;0.20;;
61116;SDS011;47002;50.856;6.580;2022-07-24T11:00:21;0.28;;;0.28;;
61116;SDS011;47002;50.856;6.580;2022-07-24T11:02:54;0.20;;;0.20;;
61116;SDS011;47002;50.856;6.580;2022-07-24T11:05:28;0.20;;;0.20;;
61116;SDS011;47002;50.856;6.580;2022-07-24T11:10:52;0.20;;;0.20;;
61116;SDS011;47002;50.856;6.580;2022-07-24T11:16:20;0.20;;;0.20;;
61116;SDS011;47002;50.856;6.580;2022-07-24T11:21:52;0.30;;;0.30;;
61116;SDS011;47002;50.856;6.580;2022-07-24T11:24:27;0.30;;;0.30;;
61116;SDS011;47002;50.856;6.580;2022-07-24T11:26:54;0.30;;;0.30;;
61116;SDS011;47002;50.856;6.580;2022-07-24T11:29:23;0.30;;;0.30;;
61116;SDS011;47002;50.856;6.580;2022-07-24T11:31:50;0.30;;;0.30;;
61116;SDS011;47002;50.856;6.580;2022-07-24T11:34:18;0.30;;;0.30;;
61116;SDS011;47002;50.856;6.580;2022-07-24T11:36:46;0.30;;;0.30;;
61116;SDS011;47002;50.856;6.580;2022-07-24T11:39:13;0.30;;;0.30;;
61116;SDS011;47002;50.856;6.580;2022-07-24T11:41:42;0.30;;;0.30;;
61116;SDS011;47002;50.856;6.580;2022-07-24T11:44:08;0.30;;;0.30;;
61116;SDS011;47002;50.856;6.580;2022-07-24T11:46:35;0.30;;;0.30;;
61116;SDS011;47002;50.856;6.580;2022-07-24T11:49:02;0.30;;;0.30;;
61116;SDS011;47002;50.856;6.580;2022-07-24T11:51:28;0.40;;;0.40;;
61116;SDS011;47002;50.856;6.580;2022-07-24T11:53:54;0.30;;;0.30;;
61116;SDS011;47002;50.856;6.580;2022-07-24T11:56:21;0.30;;;0.30;;
61116;SDS011;47002;50.856;6.580;2022-07-24T11:58:47;0.32;;;0.32;;
61116;SDS011;47002;50.856;6.580;2022-07-24T12:01:19;0.32;;;0.32;;
61116;SDS011;47002;50.856;6.580;2022-07-24T12:03:49;0.35;;;0.35;;
61116;SDS011;47002;50.856;6.580;2022-07-24T12:06:15;0.40;;;0.40;;
61116;SDS011;47002;50.856;6.580;2022-07-24T12:08:42;0.35;;;0.35;;
61116;SDS011;47002;50.856;6.580;2022-07-24T12:11:08;0.40;;;0.40;;
61116;SDS011;47002;50.856;6.580;2022-07-24T12:13:34;0.40;;;0.40;;
61116;SDS011;47002;50.856;6.580;2022-07-24T12:16:05;0.40;;;0.40;;
61116;SDS011;47002;50.856;6.580;2022-07-24T12:18:31;0.40;;;0.40;;
61116;SDS011;47002;50.856;6.580;2022-07-24T12:20:59;0.40;;;0.40;;
61116;SDS011;47002;50.856;6.580;2022-07-24T12:23:26;0.40;;;0.40;;
61116;SDS011;47002;50.856;6.580;2022-07-24T12:25:52;0.40;;;0.40;;
61116;SDS011;47002;50.856;6.580;2022-07-24T12:28:18;0.40;;;0.40;;
61116;SDS011;47002;50.856;6.580;2022-07-24T12:30:45;0.40;;;0.40;;
61116;SDS011;47002;50.856;6.580;2022-07-24T12:33:19;0.40;;;0.40;;
61116;SDS011;47002;50.856;6.580;2022-07-24T12:35:53;0.40;;;0.40;;
61116;SDS011;47002;50.856;6.580;2022-07-24T12:38:24;0.40;;;0.40;;
61116;SDS011;47002;50.856;6.580;2022-07-24T12:40:51;0.40;;;0.40;;
61116;SDS011;47002;50.856;6.580;2022-07-24T12:43:25;0.40;;;0.40;;
61116;SDS011;47002;50.856;6.580;2022-07-24T12:46:03;0.40;;;0.40;;
61116;SDS011;47002;50.856;6.580;2022-07-24T12:48:30;0.40;;;0.40;;
61116;SDS011;47002;50.856;6.580;2022-07-24T12:50:59;0.40;;;0.40;;
61116;SDS011;47002;50.856;6.580;2022-07-24T12:53:29;0.40;;;0.40;;
61116;SDS011;47002;50.856;6.580;2022-07-24T12:56:00;0.40;;;0.40;;
61116;SDS011;47002;50.856;6.580;2022-07-24T12:58:27;0.50;;;0.50;;
61116;SDS011;47002;50.856;6.580;2022-07-24T13:00:55;0.47;;;0.43;;
61116;SDS011;47002;50.856;6.580;2022-07-24T13:03:23;0.52;;;0.40;;
61116;SDS011;47002;50.856;6.580;2022-07-24T13:05:53;0.40;;;0.40;;
61116;SDS011;47002;50.856;6.580;2022-07-24T13:08:20;0.50;;;0.50;;
61116;SDS011;47002;50.856;6.580;2022-07-24T13:10:47;0.40;;;0.40;;
61116;SDS011;47002;50.856;6.580;2022-07-24T13:13:13;0.45;;;0.45;;
61116;SDS011;47002;50.856;6.580;2022-07-24T13:15:38;0.40;;;0.40;;
61116;SDS011;47002;50.856;6.580;2022-07-24T13:18:04;0.40;;;0.40;;
61116;SDS011;47002;50.856;6.580;2022-07-24T13:20:30;0.45;;;0.45;;
61116;SDS011;47002;50.856;6.580;2022-07-24T13:22:55;0.40;;;0.40;;
61116;SDS011;47002;50.856;6.580;2022-07-24T13:25:21;0.40;;;0.40;;
61116;SDS011;47002;50.856;6.580;2022-07-24T13:27:48;0.50;;;0.50;;
61116;SDS011;47002;50.856;6.580;2022-07-24T13:30:14;0.50;;;0.50;;
61116;SDS011;47002;50.856;6.580;2022-07-24T13:32:40;0.50;;;0.50;;
61116;SDS011;47002;50.856;6.580;2022-07-24T13:35:06;0.52;;;0.52;;
61116;SDS011;47002;50.856;6.580;2022-07-24T13:37:32;0.63;;;0.60;;
61116;SDS011;47002;50.856;6.580;2022-07-24T13:39:58;0.70;;;0.60;;
61116;SDS011;47002;50.856;6.580;2022-07-24T13:42:24;0.80;;;0.80;;
61116;SDS011;47002;50.856;6.580;2022-07-24T13:44:51;0.90;;;0.90;;
61116;SDS011;47002;50.856;6.580;2022-07-24T13:47:16;1.20;;;1.10;;
61116;SDS011;47002;50.856;6.580;2022-07-24T13:49:42;1.48;;;1.38;;
61116;SDS011;47002;50.856;6.580;2022-07-24T13:52:08;2.08;;;1.98;;
61116;SDS011;47002;50.856;6.580;2022-07-24T13:54:34;2.50;;;2.40;;
61116;SDS011;47002;50.856;6.580;2022-07-24T13:56:59;3.30;;;3.10;;
61116;SDS011;47002;50.856;6.580;2022-07-24T13:59:25;4.20;;;4.00;;
61116;SDS011;47002;50.856;6.580;2022-07-24T14:01:52;4.78;;;4.57;;
61116;SDS011;47002;50.856;6.580;2022-07-24T14:04:18;5.57;;;5.28;;
61116;SDS011;47002;50.856;6.580;2022-07-24T14:06:43;6.50;;;6.20;;
61116;SDS011;47002;50.856;6.580;2022-07-24T14:09:09;7.50;;;7.10;;
61116;SDS011;47002;50.856;6.580;2022-07-24T14:11:35;8.75;;;8.35;;
61116;SDS011;47002;50.856;6.580;2022-07-24T14:14:00;10.25;;;9.75;;
61116;SDS011;47002;50.856;6.580;2022-07-24T14:16:26;11.02;;;10.43;;
61116;SDS011;47002;50.856;6.580;2022-07-24T14:18:53;12.25;;;11.65;;
61116;SDS011;47002;50.856;6.580;2022-07-24T14:21:19;14.32;;;13.63;;
61116;SDS011;47002;50.856;6.580;2022-07-24T14:23:45;16.15;;;15.35;;
61116;SDS011;47002;50.856;6.580;2022-07-24T14:26:10;18.10;;;17.20;;
61116;SDS011;47002;50.856;6.580;2022-07-24T14:28:36;19.92;;;18.92;;
61116;SDS011;47002;50.856;6.580;2022-07-24T14:31:02;21.42;;;20.35;;
61116;SDS011;47002;50.856;6.580;2022-07-24T14:33:27;21.55;;;20.45;;
61116;SDS011;47002;50.856;6.580;2022-07-24T14:35:55;22.95;;;21.85;;
61116;SDS011;47002;50.856;6.580;2022-07-24T14:38:20;24.77;;;23.58;;
61116;SDS011;47002;50.856;6.580;2022-07-24T14:40:46;26.10;;;24.80;;
61116;SDS011;47002;50.856;6.580;2022-07-24T14:43:12;28.60;;;27.20;;
61116;SDS011;47002;50.856;6.580;2022-07-24T14:45:37;30.65;;;29.15;;
61116;SDS011;47002;50.856;6.580;2022-07-24T14:48:04;34.78;;;33.08;;
61116;SDS011;47002;50.856;6.580;2022-07-24T14:50:29;39.15;;;37.25;;
61116;SDS011;47002;50.856;6.580;2022-07-24T14:52:57;42.10;;;40.00;;